Time;durP1;ratioP1;P1;durP2;ratioP2;P2;SDS_P1;SDS_P2;PMS_P1;PMS_P2;Temp;Humidity;BMP_temperature;BMP_pressure;BME280_temperature;BME280_humidity;BME280_pressure;Samples;Min_cycle;Max_cycle;Signal;HPM_P1;HPM_P2
2021/07/06 00:01:43;;;;;;;5.45;1.85;;;22.80;99.90;;;;;;4230977;28;20411;-72
2021/07/06 00:03:47;;;;;;;5.88;1.70;;;22.80;99.90;;;;;;4241089;27;20062;-73
2021/07/06 00:05:51;;;;;;;6.43;1.98;;;22.90;99.90;;;;;;4247734;27;20058;-72
2021/07/06 00:07:54;;;;;;;5.47;2.00;;;22.80;99.90;;;;;;4247824;27;20066;-72
2021/07/06 00:09:59;;;;;;;4.40;1.50;;;22.80;99.90;;;;;;4247835;27;20053;-73
2021/07/06 00:12:02;;;;;;;4.95;1.58;;;22.70;99.90;;;;;;4229963;28;20058;-72
2021/07/06 00:14:06;;;;;;;5.47;1.65;;;22.60;99.90;;;;;;4247858;27;20560;-73
2021/07/06 00:16:09;;;;;;;3.17;1.60;;;22.40;99.90;;;;;;4247775;27;20631;-73
2021/07/06 00:18:12;;;;;;;3.78;1.67;;;22.40;99.90;;;;;;4248142;27;20055;-72
2021/07/06 00:20:16;;;;;;;6.18;1.73;;;22.40;99.90;;;;;;4247642;27;20047;-71
2021/07/06 00:22:20;;;;;;;8.38;1.52;;;22.40;99.90;;;;;;4247623;27;20480;-71
2021/07/06 00:24:23;;;;;;;1.88;1.15;;;22.40;99.90;;;;;;4247883;27;20059;-72
2021/07/06 00:26:26;;;;;;;2.92;1.40;;;22.40;99.90;;;;;;4248008;27;20051;-72
2021/07/06 00:28:29;;;;;;;5.15;1.48;;;22.40;99.90;;;;;;4247210;27;20406;-71
2021/07/06 00:30:32;;;;;;;3.40;1.30;;;22.50;99.90;;;;;;4229434;28;20055;-71
2021/07/06 00:32:35;;;;;;;4.65;1.35;;;22.50;99.90;;;;;;4247526;27;20051;-72
2021/07/06 00:34:39;;;;;;;2.83;1.58;;;22.50;99.90;;;;;;4247388;27;20412;-70
2021/07/06 00:36:42;;;;;;;4.90;1.25;;;22.60;99.90;;;;;;4247246;27;20415;-70
2021/07/06 00:38:46;;;;;;;4.30;1.52;;;22.60;99.90;;;;;;4229028;28;20056;-71
2021/07/06 00:40:51;;;;;;;6.93;1.50;;;22.70;99.90;;;;;;4248378;27;20051;-71
2021/07/06 00:42:59;;;;;;;3.97;1.35;;;22.70;99.90;;;;;;4249817;27;20051;-72
2021/07/06 00:45:02;;;;;;;3.53;1.20;;;22.70;99.90;;;;;;4249860;27;20062;-70
2021/07/06 00:47:06;;;;;;;3.03;1.05;;;22.80;99.90;;;;;;4248306;27;20063;-72
2021/07/06 00:49:09;;;;;;;5.03;1.40;;;22.70;99.70;;;;;;4247718;27;20385;-72
2021/07/06 00:51:13;;;;;;;2.72;1.20;;;22.60;99.90;;;;;;4247003;27;20051;-73
2021/07/06 00:53:16;;;;;;;8.00;1.40;;;22.60;99.90;;;;;;4247704;27;20442;-72
2021/07/06 00:55:20;;;;;;;3.95;1.30;;;22.40;99.90;;;;;;4247069;27;20416;-72
2021/07/06 00:57:29;;;;;;;;;;;22.40;99.90;;;;;;4247834;27;20055;-72
2021/07/06 00:59:32;;;;;;;1.50;1.17;;;22.40;99.90;;;;;;4247333;27;19919;-73
2021/07/06 01:01:36;;;;;;;3.67;1.00;;;22.40;99.90;;;;;;4246879;27;20057;-72
2021/07/06 01:03:39;;;;;;;3.50;1.02;;;22.50;99.90;;;;;;4246760;27;20043;-72
2021/07/06 01:05:42;;;;;;;4.70;1.30;;;22.40;99.80;;;;;;4247009;27;20068;-72
2021/07/06 01:07:46;;;;;;;2.50;1.20;;;22.20;99.60;;;;;;4246951;27;20055;-72
2021/07/06 01:09:50;;;;;;;;;;;22.20;99.90;;;;;;4247904;27;20062;-72
2021/07/06 01:11:54;;;;;;;4.32;1.15;;;22.20;99.90;;;;;;4247930;27;19927;-72
2021/07/06 01:13:57;;;;;;;2.95;1.30;;;22.20;99.90;;;;;;4247093;27;20453;-71
2021/07/06 01:16:00;;;;;;;2.45;0.88;;;22.20;99.60;;;;;;4247103;27;20076;-71
2021/07/06 01:18:05;;;;;;;3.55;1.10;;;22.30;99.60;;;;;;4245349;27;20047;-71
2021/07/06 01:20:11;;;;;;;4.75;1.05;;;22.20;99.60;;;;;;4230210;27;20052;-72
2021/07/06 01:22:25;;;;;;;2.78;0.82;;;22.20;99.60;;;;;;4230134;28;20051;-70
2021/07/06 01:24:28;;;;;;;3.65;0.95;;;22.30;99.50;;;;;;4232652;28;20047;-73
2021/07/06 01:26:31;;;;;;;2.72;0.93;;;22.40;99.10;;;;;;4232388;28;20052;-72
2021/07/06 01:28:35;;;;;;;2.80;0.98;;;22.20;98.90;;;;;;4233559;28;20056;-70
2021/07/06 01:30:39;;;;;;;3.50;0.93;;;22.20;98.90;;;;;;4231764;28;20047;-71
2021/07/06 01:32:44;;;;;;;3.35;1.20;;;22.00;99.30;;;;;;4230218;28;20052;-72
2021/07/06 01:34:48;;;;;;;2.30;0.90;;;22.00;99.90;;;;;;4229916;28;20383;-72
2021/07/06 01:36:52;;;;;;;1.70;0.77;;;21.80;99.70;;;;;;4230672;28;20054;-72
2021/07/06 01:38:57;;;;;;;1.92;1.08;;;21.90;99.70;;;;;;4230860;28;20633;-72
2021/07/06 01:41:00;;;;;;;3.78;1.08;;;21.80;99.90;;;;;;4231670;28;20070;-71
2021/07/06 01:43:03;;;;;;;2.25;1.15;;;21.90;99.70;;;;;;4230824;28;20639;-72
2021/07/06 01:45:09;;;;;;;1.15;0.80;;;21.80;99.60;;;;;;4230531;28;20396;-73
2021/07/06 01:47:12;;;;;;;4.35;1.20;;;21.80;99.80;;;;;;4231990;28;20062;-72
2021/07/06 01:49:16;;;;;;;3.28;1.08;;;21.80;99.60;;;;;;4232668;28;20059;-71
2021/07/06 01:51:19;;;;;;;2.42;0.95;;;21.60;99.90;;;;;;4231844;28;20055;-72
2021/07/06 01:53:22;;;;;;;3.55;0.90;;;21.70;99.80;;;;;;4229370;28;20054;-72
2021/07/06 01:55:28;;;;;;;1.92;0.77;;;21.60;99.90;;;;;;4229180;28;20048;-72
2021/07/06 01:57:31;;;;;;;4.53;1.00;;;21.60;99.90;;;;;;4229435;28;20439;-72
2021/07/06 01:59:34;;;;;;;2.03;0.80;;;21.70;99.70;;;;;;4229367;28;20056;-72
2021/07/06 02:01:38;;;;;;;3.78;1.00;;;21.80;99.70;;;;;;4229135;28;20056;-72
2021/07/06 02:03:42;;;;;;;3.08;0.75;;;21.60;99.80;;;;;;4238540;27;20055;-71
2021/07/06 02:05:47;;;;;;;7.13;0.90;;;21.60;99.80;;;;;;4246083;27;20067;-73
2021/07/06 02:07:50;;;;;;;2.45;0.80;;;21.50;99.80;;;;;;4246032;27;20057;-73
2021/07/06 02:09:53;;;;;;;4.50;0.95;;;21.40;99.90;;;;;;4245890;27;20066;-73
2021/07/06 02:11:57;;;;;;;4.35;1.30;;;21.30;99.90;;;;;;4245228;27;20061;-72
2021/07/06 02:14:01;;;;;;;6.07;0.95;;;21.30;99.90;;;;;;4245969;27;20054;-73
2021/07/06 02:16:05;;;;;;;6.30;1.10;;;21.40;99.70;;;;;;4246055;27;20055;-73
2021/07/06 02:18:14;;;;;;;2.05;0.73;;;21.30;99.70;;;;;;4245757;27;20051;-72
2021/07/06 02:20:19;;;;;;;8.38;0.80;;;21.00;99.90;;;;;;4245771;27;20073;-72
2021/07/06 02:22:22;;;;;;;2.65;0.80;;;21.00;99.90;;;;;;4245866;27;20055;-71
2021/07/06 02:24:25;;;;;;;5.13;0.77;;;21.00;99.90;;;;;;4245930;27;20156;-71
2021/07/06 02:26:28;;;;;;;5.38;0.93;;;21.00;99.90;;;;;;4245918;27;20073;-72
2021/07/06 02:28:33;;;;;;;2.45;0.93;;;21.10;99.90;;;;;;4245795;27;20065;-72
2021/07/06 02:30:36;;;;;;;;;;;21.20;99.50;;;;;;4246481;27;20051;-72
2021/07/06 02:32:39;;;;;;;2.83;1.10;;;21.10;99.70;;;;;;4245736;27;19926;-73
2021/07/06 02:34:42;;;;;;;3.05;0.85;;;21.00;99.90;;;;;;4245779;27;20058;-72
2021/07/06 02:36:45;;;;;;;3.47;0.65;;;20.90;99.80;;;;;;4245555;27;20051;-71
2021/07/06 02:38:49;;;;;;;4.45;1.10;;;20.70;99.90;;;;;;4245855;27;20499;-72
2021/07/06 02:40:52;;;;;;;4.65;0.73;;;20.70;99.80;;;;;;4245694;27;20395;-73
2021/07/06 02:42:57;;;;;;;3.65;1.10;;;20.70;99.70;;;;;;4245784;27;20059;-71
2021/07/06 02:45:01;;;;;;;4.07;0.82;;;20.80;99.40;;;;;;4245678;27;20054;-71
2021/07/06 02:47:04;;;;;;;3.10;1.08;;;20.60;99.00;;;;;;4246086;27;20047;-72
2021/07/06 02:49:08;;;;;;;4.53;1.00;;;20.60;99.30;;;;;;4229562;28;20649;-72
2021/07/06 02:51:14;;;;;;;8.63;1.10;;;20.60;99.10;;;;;;4247770;27;20067;-71
2021/07/06 02:53:17;;;;;;;5.72;1.00;;;20.50;99.30;;;;;;4247830;27;20150;-71
2021/07/06 02:55:20;;;;;;;5.15;0.70;;;20.50;99.50;;;;;;4245646;27;20116;-73
2021/07/06 02:57:41;;;;;;;4.85;1.08;;;20.50;99.40;;;;;;4245861;27;20072;-71
2021/07/06 02:59:45;;;;;;;4.07;0.98;;;20.60;99.40;;;;;;4227546;28;20052;-71
2021/07/06 03:01:51;;;;;;;4.90;0.90;;;20.70;99.30;;;;;;4245552;27;20134;-72
2021/07/06 03:03:54;;;;;;;4.05;1.10;;;20.70;99.50;;;;;;4245323;28;20055;-71
2021/07/06 03:05:57;;;;;;;5.35;1.00;;;20.80;99.50;;;;;;4245262;28;20059;-72
2021/07/06 03:08:02;;;;;;;5.80;0.90;;;21.00;99.10;;;;;;4245575;28;20051;-69
2021/07/06 03:10:07;;;;;;;1.30;0.90;;;20.90;99.20;;;;;;4245208;28;20055;-71
2021/07/06 03:12:09;;;;;;;;;;;20.70;99.40;;;;;;4245775;28;20051;-72
2021/07/06 03:14:12;;;;;;;4.10;0.85;;;20.60;99.60;;;;;;4245426;28;19923;-72
2021/07/06 03:16:15;;;;;;;2.78;0.88;;;20.60;99.50;;;;;;4245319;28;20047;-72
2021/07/06 03:18:21;;;;;;;9.25;1.10;;;20.50;99.80;;;;;;4245211;28;20058;-72
2021/07/06 03:20:25;;;;;;;;;;;20.60;99.60;;;;;;4241414;28;20055;-72
2021/07/06 03:22:28;;;;;;;2.58;0.95;;;20.70;99.00;;;;;;4244995;28;20296;-70
2021/07/06 03:24:30;;;;;;;4.88;0.90;;;20.40;98.90;;;;;;4248052;27;20065;-72
2021/07/06 03:26:33;;;;;;;4.40;0.85;;;20.50;99.00;;;;;;4248632;27;20061;-72
2021/07/06 03:28:38;;;;;;;8.45;0.90;;;20.50;98.90;;;;;;4248808;27;20065;-72
2021/07/06 03:30:41;;;;;;;4.10;1.10;;;20.30;99.10;;;;;;4249006;27;20066;-72
2021/07/06 03:32:44;;;;;;;4.72;1.30;;;20.20;99.20;;;;;;4230978;28;20044;-72
2021/07/06 03:34:49;;;;;;;3.97;1.20;;;20.10;99.40;;;;;;4248649;27;20137;-72
2021/07/06 03:36:52;;;;;;;4.95;0.95;;;20.20;99.40;;;;;;4248773;27;20138;-73
2021/07/06 03:38:55;;;;;;;5.68;1.13;;;20.10;99.50;;;;;;4248487;27;20518;-72
2021/07/06 03:40:58;;;;;;;5.45;1.30;;;20.20;99.20;;;;;;4249587;27;20452;-72
2021/07/06 03:43:02;;;;;;;5.10;1.10;;;20.40;98.70;;;;;;4251679;27;20119;-71
2021/07/06 03:45:08;;;;;;;3.37;1.00;;;20.50;98.40;;;;;;4236443;27;20058;-71
2021/07/06 03:47:11;;;;;;;7.45;1.27;;;20.50;98.40;;;;;;4257719;27;20067;-72
2021/07/06 03:49:14;;;;;;;3.13;1.00;;;20.60;98.20;;;;;;4253856;27;20110;-72
2021/07/06 03:51:19;;;;;;;6.57;1.80;;;20.80;97.90;;;;;;4250006;27;20224;-72
2021/07/06 03:53:22;;;;;;;5.97;1.30;;;20.70;97.30;;;;;;4249608;27;20403;-72
2021/07/06 03:55:27;;;;;;;5.28;1.35;;;20.20;97.20;;;;;;4248587;27;20408;-72
2021/07/06 03:57:30;;;;;;;;;;;20.10;97.40;;;;;;4249694;27;20057;-72
2021/07/06 03:59:33;;;;;;;3.78;1.40;;;20.10;97.50;;;;;;4248817;27;19925;-70
2021/07/06 04:01:36;;;;;;;10.88;1.65;;;20.10;97.40;;;;;;4249901;27;20055;-72
2021/07/06 04:03:39;;;;;;;5.63;1.30;;;20.20;97.10;;;;;;4250414;27;20062;-72
2021/07/06 04:05:42;;;;;;;7.93;1.75;;;20.30;97.10;;;;;;4252543;27;20051;-72
2021/07/06 04:07:47;;;;;;;7.80;1.73;;;20.40;96.90;;;;;;4251045;27;20051;-73
2021/07/06 04:09:51;;;;;;;9.05;1.70;;;20.30;96.80;;;;;;4229940;28;20055;-71
2021/07/06 04:11:54;;;;;;;7.43;1.45;;;20.40;96.70;;;;;;4248396;27;20055;-71
2021/07/06 04:13:57;;;;;;;8.88;1.98;;;20.20;96.20;;;;;;4247970;27;20604;-71
2021/07/06 04:16:00;;;;;;;9.30;1.67;;;20.10;96.30;;;;;;4247839;27;20640;-73
2021/07/06 04:18:03;;;;;;;11.48;1.80;;;19.90;96.10;;;;;;4248043;27;20051;-72
2021/07/06 04:20:08;;;;;;;10.23;1.80;;;19.60;96.40;;;;;;4247788;27;20066;-73
2021/07/06 04:22:11;;;;;;;7.32;1.63;;;19.60;96.80;;;;;;4247642;27;20101;-73
2021/07/06 04:24:15;;;;;;;10.27;2.03;;;19.70;96.80;;;;;;4247401;27;20058;-72
2021/07/06 04:26:19;;;;;;;9.38;2.00;;;19.80;96.70;;;;;;4247940;27;20051;-71
2021/07/06 04:28:22;;;;;;;11.32;1.77;;;19.80;96.20;;;;;;4247555;27;20130;-72
2021/07/06 04:30:25;;;;;;;7.68;2.00;;;19.70;96.10;;;;;;4229263;27;20417;-73
2021/07/06 04:32:28;;;;;;;12.38;1.80;;;19.40;96.20;;;;;;4247478;27;20058;-74
2021/07/06 04:34:31;;;;;;;9.30;1.95;;;19.50;96.40;;;;;;4247564;27;20057;-71
2021/07/06 04:36:34;;;;;;;6.53;1.50;;;19.40;96.30;;;;;;4247323;27;20055;-72
2021/07/06 04:38:37;;;;;;;13.88;1.85;;;19.50;96.30;;;;;;4229369;28;20059;-71
2021/07/06 04:40:42;;;;;;;12.27;2.20;;;19.40;96.30;;;;;;4247451;27;20043;-72
2021/07/06 04:42:46;;;;;;;13.30;1.85;;;19.40;96.50;;;;;;4247671;27;20426;-71
2021/07/06 04:44:49;;;;;;;13.13;2.35;;;19.30;96.20;;;;;;4247217;27;20051;-71
2021/07/06 04:46:52;;;;;;;9.98;1.75;;;19.30;96.20;;;;;;4247669;27;20058;-71
2021/07/06 04:48:55;;;;;;;13.85;2.10;;;19.10;96.20;;;;;;4247610;27;20073;-72
2021/07/06 04:51:05;;;;;;;11.55;2.15;;;19.20;96.30;;;;;;4247449;27;20066;-73
2021/07/06 04:53:08;;;;;;;7.43;1.80;;;19.20;96.50;;;;;;4247219;27;20057;-73
2021/07/06 04:55:12;;;;;;;12.85;2.55;;;19.10;96.20;;;;;;4247114;27;20403;-73
2021/07/06 04:57:21;;;;;;;15.98;2.22;;;19.10;96.20;;;;;;4247563;27;20403;-71
2021/07/06 04:59:24;;;;;;;16.77;2.05;;;19.20;96.00;;;;;;4247416;27;20554;-72
2021/07/06 05:01:27;;;;;;;11.60;1.90;;;19.20;96.00;;;;;;4247299;27;20059;-73
2021/07/06 05:03:31;;;;;;;9.80;2.33;;;19.20;95.70;;;;;;4247042;27;20399;-72
2021/07/06 05:05:38;;;;;;;7.13;1.80;;;19.20;95.60;;;;;;4247154;27;20054;-72
2021/07/06 05:07:41;;;;;;;15.60;2.35;;;19.20;95.90;;;;;;4247123;27;20183;-71
2021/07/06 05:09:45;;;;;;;10.35;1.75;;;19.20;95.70;;;;;;4247110;27;20055;-72
2021/07/06 05:11:48;;;;;;;8.23;1.63;;;19.10;95.40;;;;;;4247099;27;20057;-72
2021/07/06 05:13:53;;;;;;;12.45;2.40;;;19.10;95.60;;;;;;4247422;27;20062;-72
2021/07/06 05:15:56;;;;;;;10.27;2.15;;;19.30;95.50;;;;;;4247344;27;20051;-72
2021/07/06 05:17:59;;;;;;;14.27;2.17;;;19.30;95.00;;;;;;4247427;27;20054;-73
2021/07/06 05:20:03;;;;;;;11.40;1.80;;;19.20;95.00;;;;;;4244594;27;20051;-71
2021/07/06 05:22:06;;;;;;;12.43;2.20;;;19.20;94.80;;;;;;4231103;28;20055;-72
2021/07/06 05:24:10;;;;;;;10.00;1.95;;;19.10;94.70;;;;;;4231108;28;20047;-70
2021/07/06 05:26:13;;;;;;;15.88;2.53;;;19.10;95.00;;;;;;4231242;28;20056;-70
2021/07/06 05:28:16;;;;;;;13.80;2.20;;;19.10;95.00;;;;;;4229781;28;20365;-72
2021/07/06 05:30:21;;;;;;;14.05;2.53;;;19.10;94.90;;;;;;4229602;28;20078;-71
2021/07/06 05:32:24;;;;;;;13.55;2.97;;;19.00;95.20;;;;;;4211617;28;20052;-70
2021/07/06 05:34:27;;;;;;;14.85;2.20;;;18.80;95.20;;;;;;4229945;28;20491;-72
2021/07/06 05:36:30;;;;;;;9.48;2.13;;;19.00;95.30;;;;;;4231075;28;20060;-70
2021/07/06 05:38:33;;;;;;;11.27;2.35;;;19.20;95.10;;;;;;4229730;28;20054;-70
2021/07/06 05:40:39;;;;;;;11.32;2.25;;;18.90;94.70;;;;;;4230022;28;20052;-72
2021/07/06 05:42:43;;;;;;;13.50;2.70;;;18.80;94.90;;;;;;4230809;28;20062;-71
2021/07/06 05:44:46;;;;;;;15.27;2.50;;;18.70;94.80;;;;;;4229982;28;20056;-72
2021/07/06 05:46:51;;;;;;;16.55;2.70;;;18.80;95.10;;;;;;4229972;28;20047;-72
2021/07/06 05:48:54;;;;;;;14.80;3.60;;;18.80;95.10;;;;;;4229597;28;20047;-71
2021/07/06 05:50:57;;;;;;;13.25;2.20;;;18.90;94.80;;;;;;4229120;28;20411;-71
2021/07/06 05:53:01;;;;;;;14.68;2.47;;;18.90;95.00;;;;;;4229460;28;20054;-72
2021/07/06 05:55:05;;;;;;;16.75;3.17;;;18.90;94.40;;;;;;4229052;28;20047;-71
2021/07/06 05:57:08;;;;;;;14.85;2.63;;;18.80;94.10;;;;;;4229136;28;20062;-70
2021/07/06 05:59:11;;;;;;;13.57;2.60;;;18.80;93.90;;;;;;4229076;28;20237;-70
2021/07/06 06:01:15;;;;;;;13.85;2.63;;;18.60;94.10;;;;;;4229141;28;20043;-70
2021/07/06 06:03:19;;;;;;;14.18;2.20;;;18.50;94.50;;;;;;4217332;28;20525;-71
2021/07/06 06:05:22;;;;;;;17.65;3.03;;;18.50;94.60;;;;;;4246230;27;20061;-71
2021/07/06 06:07:28;;;;;;;19.38;2.70;;;18.60;94.40;;;;;;4246230;27;20057;-71
2021/07/06 06:09:31;;;;;;;17.50;2.80;;;18.60;94.50;;;;;;4246114;27;20043;-71
2021/07/06 06:11:34;;;;;;;18.90;2.88;;;18.60;94.40;;;;;;4245845;27;20534;-72
2021/07/06 06:13:37;;;;;;;12.38;2.58;;;18.70;94.10;;;;;;4246070;27;20047;-70
2021/07/06 06:15:40;;;;;;;12.70;3.00;;;18.70;94.20;;;;;;4246301;27;20055;-71
2021/07/06 06:17:44;;;;;;;21.98;3.45;;;18.60;94.20;;;;;;4246284;27;20065;-71
2021/07/06 06:19:49;;;;;;;15.10;2.88;;;18.80;94.20;;;;;;4246050;27;20500;-72
2021/07/06 06:21:52;;;;;;;14.02;2.65;;;19.00;94.10;;;;;;4245958;27;20648;-70
2021/07/06 06:23:55;;;;;;;20.73;2.78;;;19.20;93.90;;;;;;4245741;27;20055;-70
2021/07/06 06:25:58;;;;;;;19.95;3.03;;;19.00;93.80;;;;;;4245650;27;20047;-70
2021/07/06 06:28:01;;;;;;;25.60;3.33;;;19.00;94.10;;;;;;4246504;27;20061;-72
2021/07/06 06:30:05;;;;;;;14.48;2.63;;;18.90;94.20;;;;;;4246047;27;20059;-72
2021/07/06 06:32:09;;;;;;;13.77;3.77;;;19.00;94.30;;;;;;4246165;27;20072;-69
2021/07/06 06:34:12;;;;;;;13.68;2.72;;;19.00;94.20;;;;;;4245790;27;20684;-70
2021/07/06 06:36:17;;;;;;;17.65;2.65;;;19.20;94.00;;;;;;4245689;27;20054;-70
2021/07/06 06:38:20;;;;;;;14.35;3.35;;;19.00;93.50;;;;;;4245681;27;20051;-71
2021/07/06 06:40:23;;;;;;;20.63;3.92;;;18.90;93.90;;;;;;4246454;27;20061;-70
2021/07/06 06:42:26;;;;;;;15.90;2.97;;;19.10;94.20;;;;;;4246644;27;20495;-70
2021/07/06 06:44:29;;;;;;;27.70;4.28;;;19.10;93.50;;;;;;4246543;27;20427;-70
2021/07/06 06:46:32;;;;;;;21.23;3.30;;;19.10;93.80;;;;;;4246633;27;20304;-72
2021/07/06 06:48:36;;;;;;;21.75;3.80;;;19.00;93.60;;;;;;4246307;27;20043;-69
2021/07/06 06:50:39;;;;;;;23.45;3.67;;;18.90;93.70;;;;;;4246354;27;20048;-70
2021/07/06 06:52:44;;;;;;;23.92;3.40;;;18.90;93.30;;;;;;4247402;27;20140;-70
2021/07/06 06:54:47;;;;;;;19.95;3.08;;;18.90;93.50;;;;;;4246396;27;20135;-71
2021/07/06 06:56:50;;;;;;;17.83;3.17;;;19.00;93.00;;;;;;4246241;27;20051;-70
2021/07/06 06:58:53;;;;;;;23.65;3.10;;;19.10;93.00;;;;;;4246074;27;20058;-72
2021/07/06 07:00:57;;;;;;;19.17;3.13;;;18.90;93.00;;;;;;4247032;27;20091;-71
2021/07/06 07:03:00;;;;;;;19.98;3.03;;;18.90;93.20;;;;;;4246153;27;20045;-71
2021/07/06 07:05:04;;;;;;;20.73;3.33;;;18.90;93.00;;;;;;4245960;28;20059;-71
2021/07/06 07:07:07;;;;;;;17.13;2.72;;;18.90;92.70;;;;;;4245710;28;20403;-71
2021/07/06 07:09:12;;;;;;;14.57;3.40;;;19.00;93.10;;;;;;4245809;28;20558;-71
2021/07/06 07:11:15;;;;;;;21.17;3.05;;;19.20;92.60;;;;;;4245491;28;20065;-71
2021/07/06 07:13:18;;;;;;;18.98;3.42;;;19.30;92.70;;;;;;4245468;28;20561;-70
2021/07/06 07:15:22;;;;;;;22.05;3.35;;;19.40;92.50;;;;;;4245504;28;20062;-69
2021/07/06 07:17:25;;;;;;;24.80;3.80;;;19.30;92.80;;;;;;4245827;28;20049;-69
2021/07/06 07:19:28;;;;;;;23.85;3.15;;;18.90;93.30;;;;;;4245610;28;20537;-70
2021/07/06 07:21:36;;;;;;;16.83;3.55;;;19.10;93.60;;;;;;4235689;27;20051;-70
2021/07/06 07:23:39;;;;;;;23.17;3.83;;;19.20;93.50;;;;;;4228572;28;20553;-70
2021/07/06 07:25:43;;;;;;;18.50;3.05;;;19.20;93.50;;;;;;4228530;28;20085;-70
2021/07/06 07:27:47;;;;;;;18.60;3.55;;;19.30;93.60;;;;;;4228543;28;20052;-69
2021/07/06 07:29:50;;;;;;;15.27;2.78;;;19.30;93.60;;;;;;4228556;28;20047;-70
2021/07/06 07:31:54;;;;;;;23.27;3.20;;;19.20;93.70;;;;;;4228497;28;20564;-69
2021/07/06 07:33:57;;;;;;;24.20;4.32;;;19.20;93.70;;;;;;4228394;28;20052;-70
2021/07/06 07:36:00;;;;;;;18.95;3.45;;;19.20;94.00;;;;;;4228650;28;20660;-72
2021/07/06 07:38:03;;;;;;;21.83;3.20;;;19.00;93.70;;;;;;4229126;28;20048;-70
2021/07/06 07:40:08;;;;;;;27.23;4.50;;;19.20;94.00;;;;;;4228566;28;20142;-69
2021/07/06 07:42:13;;;;;;;14.00;3.20;;;19.30;93.70;;;;;;4228434;28;20492;-70
2021/07/06 07:44:16;;;;;;;26.02;3.72;;;19.60;93.30;;;;;;4228577;28;20067;-70
2021/07/06 07:46:19;;;;;;;24.15;4.03;;;19.50;93.10;;;;;;4228280;28;20048;-70
2021/07/06 07:48:22;;;;;;;13.68;2.83;;;19.50;93.00;;;;;;4228084;28;20058;-70
2021/07/06 07:50:25;;;;;;;22.60;3.50;;;19.70;92.60;;;;;;4228512;28;20062;-71
2021/07/06 07:52:29;;;;;;;19.83;3.70;;;19.40;92.80;;;;;;4228304;28;20385;-70
2021/07/06 07:54:32;;;;;;;20.02;3.42;;;19.20;93.50;;;;;;4228124;28;20059;-70
2021/07/06 07:56:35;;;;;;;19.42;3.10;;;19.20;93.50;;;;;;4228576;28;20070;-70
2021/07/06 07:58:39;;;;;;;23.13;3.13;;;19.50;93.20;;;;;;4228588;28;20057;-69
2021/07/06 08:00:42;;;;;;;20.13;2.92;;;19.40;93.20;;;;;;4228784;28;20048;-70
2021/07/06 08:02:45;;;;;;;20.00;3.40;;;19.40;93.20;;;;;;4230574;28;20500;-71
2021/07/06 08:04:50;;;;;;;24.55;3.58;;;19.30;93.30;;;;;;4245878;28;20043;-71
2021/07/06 08:06:53;;;;;;;25.95;3.75;;;19.40;93.50;;;;;;4245394;28;20457;-70
2021/07/06 08:08:56;;;;;;;23.63;3.90;;;19.50;93.20;;;;;;4245402;28;20051;-70
2021/07/06 08:11:00;;;;;;;24.27;3.35;;;19.50;93.00;;;;;;4246584;27;20514;-71
2021/07/06 08:13:03;;;;;;;18.27;3.50;;;19.50;93.00;;;;;;4248236;27;20055;-69
2021/07/06 08:15:08;;;;;;;24.63;3.90;;;19.40;93.00;;;;;;4230315;28;20063;-71
2021/07/06 08:17:11;;;;;;;27.23;4.07;;;19.20;93.30;;;;;;4248399;27;20377;-70
2021/07/06 08:19:14;;;;;;;19.42;3.25;;;19.20;93.40;;;;;;4248491;27;20051;-70
2021/07/06 08:21:19;;;;;;;19.65;3.22;;;19.40;93.50;;;;;;4248197;27;20078;-70
2021/07/06 08:23:22;;;;;;;;;;;19.50;93.00;;;;;;4248574;27;20415;-70
2021/07/06 08:25:26;;;;;;;22.48;3.72;;;19.50;93.20;;;;;;4248246;27;19919;-72
2021/07/06 08:27:29;;;;;;;18.08;4.18;;;19.70;93.10;;;;;;4248099;27;20406;-71
2021/07/06 08:29:33;;;;;;;24.98;3.80;;;19.70;93.00;;;;;;4247913;27;20491;-70
2021/07/06 08:31:38;;;;;;;20.33;3.20;;;19.70;93.10;;;;;;4248083;27;20588;-70
2021/07/06 08:33:41;;;;;;;26.70;3.58;;;19.60;93.10;;;;;;4229796;27;20664;-70
2021/07/06 08:35:44;;;;;;;20.25;2.95;;;19.60;92.90;;;;;;4247822;27;20137;-70
2021/07/06 08:37:48;;;;;;;26.38;3.35;;;19.40;93.00;;;;;;4247640;27;20051;-71
2021/07/06 08:39:51;;;;;;;20.63;3.60;;;19.40;93.40;;;;;;4247908;27;20053;-70
2021/07/06 08:41:54;;;;;;;17.17;3.58;;;19.20;93.60;;;;;;4247675;27;20137;-70
2021/07/06 08:43:57;;;;;;;21.63;3.63;;;19.30;93.60;;;;;;4248047;27;20065;-70
2021/07/06 08:46:01;;;;;;;24.00;4.75;;;19.70;93.50;;;;;;4247368;27;20057;-71
2021/07/06 08:48:07;;;;;;;19.40;3.20;;;19.80;93.10;;;;;;4247715;27;20051;-71
2021/07/06 08:50:11;;;;;;;16.35;3.22;;;19.80;93.00;;;;;;4247296;27;20057;-70
2021/07/06 08:52:16;;;;;;;21.40;3.92;;;19.90;92.80;;;;;;4247624;27;20055;-70
2021/07/06 08:54:20;;;;;;;17.83;3.15;;;19.90;92.70;;;;;;4247383;27;20055;-70
2021/07/06 08:56:24;;;;;;;21.67;3.03;;;19.70;92.70;;;;;;4247616;27;20065;-71
2021/07/06 08:58:27;;;;;;;20.33;3.25;;;19.70;92.90;;;;;;4247250;27;20051;-70
2021/07/06 09:00:30;;;;;;;16.85;3.85;;;19.70;92.70;;;;;;4247344;27;20514;-70
2021/07/06 09:02:39;;;;;;;26.58;4.07;;;19.80;92.90;;;;;;4247331;27;20073;-71
2021/07/06 09:04:50;;;;;;;22.73;3.45;;;20.00;92.70;;;;;;4247347;27;20056;-71
2021/07/06 09:06:54;;;;;;;20.88;4.43;;;20.00;92.60;;;;;;4247261;27;20046;-71
2021/07/06 09:09:19;;;;;;;25.23;4.05;;;19.90;92.70;;;;;;4247166;27;20380;-70
2021/07/06 09:11:22;;;;;;;24.20;3.42;;;19.80;93.00;;;;;;4247017;27;20059;-70
2021/07/06 09:13:26;;;;;;;18.35;4.05;;;19.90;92.90;;;;;;4247434;27;20043;-71
2021/07/06 09:15:32;;;;;;;15.35;3.30;;;19.70;93.00;;;;;;4247574;27;20059;-71
2021/07/06 09:17:35;;;;;;;28.67;3.58;;;19.80;93.00;;;;;;4248467;27;20058;-70
2021/07/06 09:19:40;;;;;;;22.10;3.42;;;19.80;92.80;;;;;;4249158;27;20116;-70
2021/07/06 09:21:45;;;;;;;18.83;3.58;;;19.80;92.40;;;;;;4226361;28;20495;-69
2021/07/06 09:23:54;;;;;;;;;;;19.60;92.80;;;;;;4231362;28;20062;-71
2021/07/06 09:26:13;;;;;;;15.13;3.10;;;19.60;92.60;;;;;;4230755;28;19926;-71
2021/07/06 09:28:23;;;;;;;19.00;3.03;;;19.60;92.90;;;;;;4230886;28;20123;-71
2021/07/06 09:30:26;;;;;;;12.27;2.90;;;19.80;92.60;;;;;;4229940;28;20051;-71
2021/07/06 09:32:29;;;;;;;19.65;3.15;;;20.00;92.40;;;;;;4229927;28;20051;-71
2021/07/06 09:34:33;;;;;;;18.85;2.90;;;20.10;92.40;;;;;;4230033;28;20051;-71
2021/07/06 09:36:39;;;;;;;14.60;2.67;;;20.20;91.90;;;;;;4230193;28;20062;-70
2021/07/06 09:38:58;;;;;;;17.48;3.08;;;20.40;91.70;;;;;;4229888;28;20074;-70
2021/07/06 09:41:01;;;;;;;20.88;3.05;;;20.60;91.20;;;;;;4211551;28;20062;-71
2021/07/06 09:43:15;;;;;;;24.13;3.03;;;20.70;90.80;;;;;;4229863;28;20522;-70
2021/07/06 09:45:22;;;;;;;14.13;2.83;;;20.90;91.00;;;;;;4230083;28;20061;-70
2021/07/06 09:47:25;;;;;;;20.67;3.13;;;20.80;90.80;;;;;;4230568;28;20496;-70
2021/07/06 09:49:30;;;;;;;24.30;3.00;;;21.00;90.80;;;;;;4230333;28;20062;-69
2021/07/06 09:51:39;;;;;;;21.65;3.40;;;20.80;90.00;;;;;;4230166;28;20062;-70
2021/07/06 09:53:46;;;;;;;22.58;3.10;;;20.90;90.30;;;;;;4230035;28;20530;-70
2021/07/06 09:55:49;;;;;;;14.70;2.63;;;21.10;90.20;;;;;;4229792;28;20397;-70
2021/07/06 09:57:52;;;;;;;20.27;2.88;;;21.00;90.10;;;;;;4230210;28;20054;-71
2021/07/06 10:00:03;;;;;;;17.42;3.22;;;20.90;89.60;;;;;;4229935;28;20066;-70
2021/07/06 10:02:08;;;;;;;14.57;2.78;;;20.90;89.80;;;;;;4230934;28;20059;-69
2021/07/06 10:04:12;;;;;;;11.70;3.00;;;20.70;90.20;;;;;;4248861;27;20065;-69
2021/07/06 10:06:16;;;;;;;9.65;2.67;;;20.60;90.00;;;;;;4256164;27;20051;-72
2021/07/06 10:08:19;;;;;;;17.55;2.60;;;20.50;90.10;;;;;;4255472;27;20509;-70
2021/07/06 10:10:24;;;;;;;17.98;2.40;;;20.60;90.20;;;;;;4252290;27;20054;-71
2021/07/06 10:12:27;;;;;;;10.98;2.60;;;20.70;90.10;;;;;;4249533;27;20077;-70
2021/07/06 10:14:32;;;;;;;12.02;2.65;;;20.80;89.90;;;;;;4250164;27;20058;-72
2021/07/06 10:16:37;;;;;;;10.52;2.38;;;20.70;89.40;;;;;;4247747;27;20058;-71
2021/07/06 10:18:41;;;;;;;13.73;2.70;;;20.80;90.10;;;;;;4228651;28;20062;-70
2021/07/06 10:20:44;;;;;;;11.50;2.92;;;21.00;89.40;;;;;;4254474;27;20064;-71
2021/07/06 10:22:47;;;;;;;13.82;2.35;;;21.10;89.10;;;;;;4253748;27;20150;-71
2021/07/06 10:24:52;;;;;;;14.98;2.58;;;20.80;89.60;;;;;;4251884;27;20491;-71
2021/07/06 10:27:02;;;;;;;14.18;2.47;;;20.80;88.90;;;;;;4251615;27;20047;-70
2021/07/06 10:29:06;;;;;;;10.25;2.38;;;20.70;88.90;;;;;;4250089;27;20061;-71
2021/07/06 10:31:17;;;;;;;13.10;2.10;;;20.80;89.10;;;;;;4248325;27;20487;-70
2021/07/06 10:33:29;;;;;;;12.70;2.00;;;20.90;88.30;;;;;;4246262;27;20135;-70
2021/07/06 10:35:49;;;;;;;13.10;2.03;;;20.90;88.60;;;;;;4247657;27;20077;-70
2021/07/06 10:37:52;;;;;;;11.40;2.28;;;21.10;89.00;;;;;;4246925;27;20411;-71
2021/07/06 10:40:12;;;;;;;7.43;1.60;;;21.30;88.20;;;;;;4246996;27;20051;-70
2021/07/06 10:42:16;;;;;;;11.98;2.20;;;21.30;87.60;;;;;;4248104;27;20059;-70
2021/07/06 10:44:31;;;;;;;15.43;2.67;;;21.30;87.50;;;;;;4248637;27;20051;-71